Time;durP1;ratioP1;P1;durP2;ratioP2;P2;SDS_P1;SDS_P2;PMS_P1;PMS_P2;Temp;Humidity;BMP_temperature;BMP_pressure;BME280_temperature;BME280_humidity;BME280_pressure;Samples;Min_cycle;Max_cycle;Signal;HPM_P1;HPM_P2
2022/06/29 00:01:29;;;;;;;22.70;14.70;;;;;;;22.07;57.98;99225.90;105945;1276;107768;-68
2022/06/29 00:03:57;;;;;;;22.70;14.50;;;;;;;22.04;58.16;99226.80;105799;1276;96380;-68
2022/06/29 00:06:26;;;;;;;22.40;13.40;;;;;;;22.04;58.25;99232.93;105831;1276;97237;-68
2022/06/29 00:08:54;;;;;;;20.40;13.00;;;;;;;22.04;58.43;99233.37;105779;1276;111921;-67
2022/06/29 00:11:23;;;;;;;23.70;14.70;;;;;;;22.02;58.34;99231.77;105766;1276;97750;-68
2022/06/29 00:13:51;;;;;;;26.40;15.40;;;;;;;21.95;58.35;99227.90;105695;1276;108437;-68
2022/06/29 00:16:19;;;;;;;22.80;14.30;;;;;;;21.90;58.47;99226.14;105799;1276;97987;-68
2022/06/29 00:18:47;;;;;;;23.30;14.00;;;;;;;21.88;58.73;99220.02;105830;1276;96345;-68
2022/06/29 00:21:16;;;;;;;21.60;13.60;;;;;;;21.84;58.76;99219.75;105870;1276;111567;-68
2022/06/29 00:23:45;;;;;;;23.40;14.80;;;;;;;21.81;58.69;99216.56;105869;1276;97976;-68
2022/06/29 00:26:15;;;;;;;22.10;14.40;;;;;;;21.75;59.09;99210.93;105830;1276;108301;-69
2022/06/29 00:28:45;;;;;;;27.60;16.10;;;;;;;21.74;59.18;99204.38;105937;1276;96472;-68
2022/06/29 00:31:13;;;;;;;23.30;15.20;;;;;;;21.76;59.23;99206.65;105936;1276;96586;-68
2022/06/29 00:33:42;;;;;;;23.90;16.10;;;;;;;21.77;59.12;99203.89;105849;1276;112037;-64
2022/06/29 00:36:11;;;;;;;22.00;14.80;;;;;;;21.79;59.22;99200.67;105842;1276;95211;-67
2022/06/29 00:38:39;;;;;;;26.40;15.50;;;;;;;21.79;59.37;99196.75;105826;1276;108538;-64
2022/06/29 00:41:07;;;;;;;26.60;14.70;;;;;;;21.79;59.51;99191.44;105838;1276;97964;-68
2022/06/29 00:43:40;;;;;;;23.00;14.80;;;;;;;21.80;59.49;99190.95;105895;1276;97874;-68
2022/06/29 00:46:09;;;;;;;23.30;15.20;;;;;;;21.81;59.38;99192.33;105982;1276;111444;-68
2022/06/29 00:48:38;;;;;;;27.00;15.10;;;;;;;21.81;59.62;99192.73;105870;1276;97852;-65
2022/06/29 00:51:11;;;;;;;25.70;14.50;;;;;;;21.81;59.85;99190.49;105880;1276;108234;-67
2022/06/29 00:53:41;;;;;;;29.60;15.60;;;;;;;21.82;59.69;99187.52;105793;1276;97891;-68
2022/06/29 00:56:13;;;;;;;23.40;14.30;;;;;;;21.81;59.79;99186.84;105900;1276;97851;-69
2022/06/29 00:58:42;;;;;;;23.60;15.00;;;;;;;21.81;59.75;99176.38;105870;1276;111139;-67
2022/06/29 01:01:15;;;;;;;23.70;15.10;;;;;;;21.82;59.96;99170.73;105888;1276;97724;-67
2022/06/29 01:03:43;;;;;;;24.90;15.50;;;;;;;21.82;60.06;99164.23;105878;1276;107850;-67
2022/06/29 01:06:12;;;;;;;25.40;15.30;;;;;;;21.81;60.11;99156.40;105800;1276;97866;-67
2022/06/29 01:08:42;;;;;;;25.00;16.30;;;;;;;21.78;60.01;99143.73;105838;1276;97872;-67
2022/06/29 01:11:11;;;;;;;25.50;15.70;;;;;;;21.75;59.94;99135.10;105822;1276;111956;-67
2022/06/29 01:13:44;;;;;;;23.70;15.90;;;;;;;21.73;60.28;99131.19;105829;1276;97929;-67
2022/06/29 01:16:12;;;;;;;25.00;15.20;;;;;;;21.72;60.38;99130.88;105813;1276;108360;-67
2022/06/29 01:18:41;;;;;;;22.70;14.30;;;;;;;21.72;60.34;99133.59;105823;1276;97966;-68
2022/06/29 01:21:11;;;;;;;22.70;14.80;;;;;;;21.72;60.41;99126.77;105828;1276;97970;-68
2022/06/29 01:23:39;;;;;;;22.50;14.20;;;;;;;21.73;60.51;99124.48;105922;1276;111947;-67
2022/06/29 01:26:11;;;;;;;22.30;14.40;;;;;;;21.74;60.52;99123.58;105953;1276;97989;-65
2022/06/29 01:28:46;;;;;;;26.40;15.70;;;;;;;21.73;60.59;99116.91;105893;1276;109022;-66
2022/06/29 01:31:16;;;;;;;22.30;14.40;;;;;;;21.73;60.58;99111.88;105895;1276;98807;-68
2022/06/29 01:33:47;;;;;;;24.70;16.20;;;;;;;21.71;60.67;99107.89;105822;1276;96353;-67
2022/06/29 01:36:17;;;;;;;22.40;14.60;;;;;;;21.68;60.61;99107.00;105959;1276;111288;-68
2022/06/29 01:38:46;;;;;;;23.50;15.20;;;;;;;21.67;60.79;99109.15;105955;1276;97971;-66
2022/06/29 01:41:15;;;;;;;23.20;14.40;;;;;;;21.66;60.83;99112.88;105854;1276;108325;-68
2022/06/29 01:43:44;;;;;;;23.80;14.70;;;;;;;21.63;60.66;99110.39;105845;1276;95410;-67
2022/06/29 01:46:11;;;;;;;24.20;15.90;;;;;;;21.55;60.66;99104.72;105944;1276;97960;-69
2022/06/29 01:48:40;;;;;;;22.20;14.80;;;;;;;21.49;60.75;99098.60;105956;1276;112090;-69
2022/06/29 01:51:09;;;;;;;24.90;16.50;;;;;;;21.44;60.97;99101.48;105983;1276;97488;-68
2022/06/29 01:53:38;;;;;;;22.90;15.20;;;;;;;21.38;60.89;99103.09;105940;1276;108405;-68
2022/06/29 01:56:06;;;;;;;25.80;16.60;;;;;;;21.35;61.05;99112.56;105998;1276;97976;-67
2022/06/29 01:58:35;;;;;;;20.80;13.80;;;;;;;21.35;61.21;99113.60;105829;1278;95194;-66
2022/06/29 02:01:04;;;;;;;22.10;14.80;;;;;;;21.35;61.12;99115.98;105780;1277;111947;-68
2022/06/29 02:03:35;;;;;;;22.10;14.90;;;;;;;21.33;61.34;99121.77;105798;1278;98003;-67
2022/06/29 02:06:03;;;;;;;22.30;14.10;;;;;;;21.32;61.46;99122.99;105831;1278;107757;-67
2022/06/29 02:08:32;;;;;;;22.90;15.00;;;;;;;21.32;61.36;99125.52;105786;1276;96315;-66
2022/06/29 02:11:03;;;;;;;24.00;14.40;;;;;;;21.32;61.52;99123.54;105863;1276;97876;-67
2022/06/29 02:13:31;;;;;;;22.60;14.60;;;;;;;21.31;61.52;99127.22;105804;1276;111925;-67
2022/06/29 02:15:59;;;;;;;22.70;14.20;;;;;;;21.30;61.42;99124.63;105847;1279;97868;-68
2022/06/29 02:18:28;;;;;;;24.40;14.70;;;;;;;21.28;61.57;99128.41;105855;1276;107803;-68
2022/06/29 02:20:58;;;;;;;24.50;15.50;;;;;;;21.26;61.53;99120.56;105797;1276;97853;-67
2022/06/29 02:23:27;;;;;;;24.50;16.30;;;;;;;21.24;61.58;99118.80;105893;1276;95291;-68
2022/06/29 02:25:56;;;;;;;23.20;15.80;;;;;;;21.23;61.70;99117.38;105910;1277;112106;-68
2022/06/29 02:28:24;;;;;;;24.20;15.80;;;;;;;21.22;61.68;99119.27;105827;1279;97888;-68
2022/06/29 02:36:28;;;;;;;25.90;17.40;;;;;;;21.17;61.89;99131.41;105806;1278;97978;-68
2022/06/29 02:38:56;;;;;;;27.00;16.60;;;;;;;21.14;62.02;99126.30;105839;1276;112029;-68
2022/06/29 02:41:25;;;;;;;25.80;15.90;;;;;;;21.14;61.99;99127.61;105799;1278;97795;-67
2022/06/29 02:43:56;;;;;;;26.00;16.10;;;;;;;21.13;62.11;99129.11;105785;1278;108277;-69
2022/06/29 02:46:25;;;;;;;23.30;15.10;;;;;;;21.13;62.00;99126.64;105856;1276;95239;-67
2022/06/29 02:48:53;;;;;;;24.50;16.30;;;;;;;21.12;62.17;99123.10;105926;1276;97900;-69
2022/06/29 02:51:22;;;;;;;23.50;16.00;;;;;;;21.11;62.10;99120.63;105864;1276;112048;-69
2022/06/29 02:53:51;;;;;;;22.70;15.30;;;;;;;21.10;62.08;99117.19;105908;1278;97928;-66
2022/06/29 02:56:20;;;;;;;26.70;16.00;;;;;;;21.07;62.11;99113.69;105859;1276;107456;-70
2022/06/29 02:58:50;;;;;;;25.50;16.00;;;;;;;21.06;62.38;99115.65;105909;1276;96355;-68
2022/06/29 03:01:18;;;;;;;22.60;15.70;;;;;;;21.03;62.30;99126.49;105907;1276;97856;-67
2022/06/29 03:03:47;;;;;;;25.90;15.50;;;;;;;21.01;62.38;99126.02;105784;1276;111976;-69
2022/06/29 03:06:16;;;;;;;23.60;16.40;;;;;;;20.96;62.40;99123.33;105806;1277;97897;-69
2022/06/29 03:08:44;;;;;;;23.50;15.80;;;;;;;20.94;62.41;99126.17;105878;1276;108376;-66
2022/06/29 03:11:13;;;;;;;23.00;14.70;;;;;;;20.94;62.44;99125.48;105860;1276;95276;-68
2022/06/29 03:13:42;;;;;;;23.80;15.30;;;;;;;20.92;62.57;99129.50;105921;1276;97875;-68
2022/06/29 03:16:11;;;;;;;24.10;16.10;;;;;;;20.91;62.54;99125.35;105886;1276;110864;-67
2022/06/29 03:18:39;;;;;;;23.40;15.40;;;;;;;20.91;62.55;99118.68;105900;1276;95174;-68
2022/06/29 03:21:10;;;;;;;26.00;15.70;;;;;;;20.90;62.75;99112.64;105871;1276;107631;-68
2022/06/29 03:23:40;;;;;;;23.00;16.00;;;;;;;20.89;62.73;99114.01;105861;1276;96959;-69
2022/06/29 03:26:09;;;;;;;25.60;16.20;;;;;;;20.89;62.78;99111.20;105906;1276;97867;-68
2022/06/29 03:28:38;;;;;;;25.60;17.40;;;;;;;20.88;62.79;99114.98;105931;1276;111881;-67
2022/06/29 03:31:06;;;;;;;25.80;17.60;;;;;;;20.88;62.93;99115.92;105871;1276;95319;-68
2022/06/29 03:33:36;;;;;;;25.80;17.10;;;;;;;20.88;63.05;99113.73;105887;1276;107794;-67
2022/06/29 03:36:04;;;;;;;28.30;17.30;;;;;;;20.89;63.07;99108.23;105877;1276;97833;-68
2022/06/29 03:38:32;;;;;;;27.20;17.20;;;;;;;20.90;63.06;99109.94;105877;1276;95270;-67
2022/06/29 03:41:00;;;;;;;24.70;16.90;;;;;;;20.90;63.02;99105.62;105862;1276;112166;-68
2022/06/29 03:43:28;;;;;;;26.30;17.10;;;;;;;20.89;63.12;99109.84;105903;1276;97866;-68
2022/06/29 03:45:57;;;;;;;25.40;16.90;;;;;;;20.89;63.10;99109.29;105471;1276;499694;-69
2022/06/29 03:48:26;;;;;;;24.40;15.90;;;;;;;20.88;63.17;99108.48;105849;1276;97954;-69
2022/06/29 03:50:54;;;;;;;25.20;15.90;;;;;;;20.89;63.41;99106.27;105913;1276;97958;-68
2022/06/29 03:53:23;;;;;;;25.70;17.30;;;;;;;20.91;63.37;99106.42;105913;1276;111341;-68
2022/06/29 03:55:51;;;;;;;25.10;17.10;;;;;;;20.93;63.34;99109.91;105762;1277;97985;-68
2022/06/29 03:58:20;;;;;;;25.20;18.00;;;;;;;20.95;63.36;99109.55;105788;1277;108693;-68
2022/06/29 04:00:49;;;;;;;25.30;18.10;;;;;;;20.98;63.41;99108.73;105881;1276;95292;-68
2022/06/29 04:03:16;;;;;;;26.20;17.40;;;;;;;21.01;63.41;99095.36;105900;1276;97995;-69
2022/06/29 04:05:44;;;;;;;30.70;18.20;;;;;;;21.04;63.68;99087.48;105866;1276;112232;-68
2022/06/29 04:08:18;;;;;;;24.60;17.90;;;;;;;21.06;63.57;99080.91;105893;1276;97845;-69
2022/06/29 04:10:46;;;;;;;27.50;18.10;;;;;;;21.08;63.58;99082.58;105904;1276;108388;-66
2022/06/29 04:13:14;;;;;;;25.00;17.70;;;;;;;21.11;63.59;99083.14;105927;1276;97961;-68
2022/06/29 04:15:46;;;;;;;26.20;17.50;;;;;;;21.16;63.69;99087.14;106015;1276;97841;-66
2022/06/29 04:18:16;;;;;;;27.60;18.00;;;;;;;21.21;63.90;99082.89;105964;1276;111870;-65
2022/06/29 04:23:31;;;;;;;29.00;19.70;;;;;;;21.30;63.79;99082.60;105919;1276;107900;-74
2022/06/29 04:25:59;;;;;;;28.90;19.00;;;;;;;21.31;63.95;99085.98;105887;1276;96458;-68
2022/06/29 04:28:28;;;;;;;28.80;20.30;;;;;;;21.31;63.91;99083.06;105845;1276;97881;-68
2022/06/29 04:30:56;;;;;;;29.90;21.90;;;;;;;21.31;63.90;99080.93;105970;1276;111376;-70
2022/06/29 04:33:25;;;;;;;32.30;21.30;;;;;;;21.30;63.99;99082.77;106016;1276;95294;-69
2022/06/29 04:35:53;;;;;;;32.40;21.20;;;;;;;21.32;64.15;99087.05;106001;1276;107538;-69
2022/06/29 04:38:21;;;;;;;25.90;19.30;;;;;;;21.35;64.23;99089.39;105875;1276;97959;-73
2022/06/29 04:40:50;;;;;;;27.60;19.30;;;;;;;21.40;64.37;99088.80;105943;1276;97904;-69
2022/06/29 04:43:20;;;;;;;34.30;19.50;;;;;;;21.47;64.55;99093.38;105944;1276;111687;-69
2022/06/29 04:48:35;;;;;;;28.00;19.70;;;;;;;21.61;64.64;99098.89;105867;1276;108394;-68
2022/06/29 04:51:07;;;;;;;27.20;19.80;;;;;;;21.66;64.64;99093.04;105800;1276;97956;-69
2022/06/29 04:53:35;;;;;;;28.00;18.90;;;;;;;21.71;64.77;99088.05;105991;1276;95352;-69
2022/06/29 04:56:05;;;;;;;29.50;19.80;;;;;;;21.78;64.47;99092.70;105942;1276;111429;-69
2022/06/29 04:58:33;;;;;;;27.90;20.30;;;;;;;21.85;64.72;99093.64;105947;1276;97752;-69
2022/06/29 05:01:04;;;;;;;25.50;18.40;;;;;;;21.91;64.66;99101.60;105971;1276;107532;-69
2022/06/29 05:03:35;;;;;;;27.60;19.90;;;;;;;21.97;64.65;99102.41;105925;1276;97944;-69
2022/06/29 05:06:03;;;;;;;29.30;19.30;;;;;;;22.03;64.48;99100.78;105984;1276;95281;-70
2022/06/29 05:08:36;;;;;;;33.00;20.10;;;;;;;22.08;64.63;99101.40;105979;1276;111066;-69
2022/06/29 05:11:04;;;;;;;31.00;19.90;;;;;;;22.13;64.70;99101.48;105960;1276;97886;-70
2022/06/29 05:13:34;;;;;;;28.40;19.50;;;;;;;22.19;64.36;99100.06;105943;1276;109334;-72
2022/06/29 05:16:04;;;;;;;25.20;18.60;;;;;;;22.25;64.57;99096.27;105877;1277;95282;-70
2022/06/29 05:18:35;;;;;;;26.30;18.10;;;;;;;22.30;64.58;99099.92;105969;1276;96534;-70
2022/06/29 05:21:03;;;;;;;25.50;18.50;;;;;;;22.36;64.72;99100.17;105933;1276;111609;-71
2022/06/29 05:23:33;;;;;;;26.40;17.90;;;;;;;22.41;64.77;99097.40;105936;1276;97777;-71
2022/06/29 05:26:01;;;;;;;25.90;18.10;;;;;;;22.44;64.56;99097.45;105948;1276;107495;-71
2022/06/29 05:28:30;;;;;;;35.70;18.10;;;;;;;22.46;64.56;99100.12;105956;1276;98143;-71
2022/06/29 05:30:58;;;;;;;27.20;18.40;;;;;;;22.51;64.87;99098.64;105917;1276;97968;-70
2022/06/29 05:33:25;;;;;;;26.10;18.30;;;;;;;22.57;64.71;99096.02;105937;1276;111385;-71
2022/06/29 05:35:53;;;;;;;27.60;18.60;;;;;;;22.62;64.94;99097.23;105989;1276;97958;-72
2022/06/29 05:38:21;;;;;;;30.40;19.50;;;;;;;22.68;64.46;99102.27;105932;1276;108497;-74
2022/06/29 05:40:51;;;;;;;26.50;18.30;;;;;;;22.69;64.57;99101.78;105902;1276;97964;-68
2022/06/29 05:43:19;;;;;;;27.40;18.30;;;;;;;22.72;64.83;99096.95;105948;1276;97892;-68
2022/06/29 05:45:49;;;;;;;27.10;18.20;;;;;;;22.78;64.91;99084.87;105949;1276;111986;-68
2022/06/29 05:48:20;;;;;;;28.20;19.10;;;;;;;22.83;64.62;99077.80;105858;1276;96311;-72
2022/06/29 05:50:48;;;;;;;27.40;17.30;;;;;;;22.81;64.37;99076.11;105963;1276;107746;-72
2022/06/29 05:53:16;;;;;;;26.70;19.10;;;;;;;22.84;64.63;99082.10;105952;1276;97957;-72
2022/06/29 05:55:47;;;;;;;29.40;17.70;;;;;;;22.87;64.72;99089.98;105959;1276;97860;-72
2022/06/29 05:58:19;;;;;;;25.30;17.30;;;;;;;22.94;64.50;99087.36;106010;1276;111489;-73
2022/06/29 06:00:47;;;;;;;24.30;16.80;;;;;;;22.99;64.47;99079.53;105984;1276;98669;-77
2022/06/29 06:03:17;;;;;;;26.50;16.90;;;;;;;23.04;64.63;99077.43;105959;1276;107431;-74
2022/06/29 06:05:47;;;;;;;24.20;16.80;;;;;;;23.13;64.64;99074.61;105929;1276;97986;-74
2022/06/29 06:08:16;;;;;;;23.30;15.70;;;;;;;23.24;64.74;99067.86;105896;1276;95231;-73
2022/06/29 06:10:44;;;;;;;24.20;16.80;;;;;;;23.37;64.63;99065.98;105895;1276;111459;-73
2022/06/29 06:13:11;;;;;;;26.40;17.70;;;;;;;23.49;64.58;99071.59;105970;1276;98003;-75
2022/06/29 06:15:39;;;;;;;28.20;17.70;;;;;;;23.61;64.55;99078.50;105831;1276;107433;-71
2022/06/29 06:18:07;;;;;;;24.80;15.60;;;;;;;23.72;64.41;99084.14;105896;1276;97857;-75
2022/06/29 06:20:35;;;;;;;21.60;14.20;;;;;;;23.83;64.45;99081.25;105907;1276;97863;-72
2022/06/29 06:23:06;;;;;;;30.80;16.00;;;;;;;23.95;64.42;99083.05;105918;1276;113176;-73
2022/06/29 06:25:34;;;;;;;24.90;16.40;;;;;;;24.06;64.31;99092.50;105960;1276;97863;-72
2022/06/29 06:28:05;;;;;;;26.10;15.00;;;;;;;24.17;64.24;99094.92;105942;1276;107725;-72
2022/06/29 06:30:35;;;;;;;23.80;15.10;;;;;;;24.28;64.10;99098.66;105876;1276;97881;-69
2022/06/29 06:33:03;;;;;;;22.00;14.40;;;;;;;24.39;64.21;99101.83;105956;1277;97890;-73
2022/06/29 06:35:32;;;;;;;23.90;15.00;;;;;;;24.46;64.08;99097.16;105981;1276;111439;-72
2022/06/29 06:38:01;;;;;;;23.60;15.50;;;;;;;24.55;63.89;99089.46;105961;1276;97732;-75
2022/06/29 06:43:16;;;;;;;22.40;14.40;;;;;;;24.74;64.02;99090.73;105909;1276;97971;-68
2022/06/29 06:45:44;;;;;;;23.60;14.80;;;;;;;24.89;64.03;99082.26;105897;1276;95288;-68
2022/06/29 06:48:12;;;;;;;22.70;14.90;;;;;;;25.03;63.93;99079.48;105880;1276;110731;-68
2022/06/29 06:50:42;;;;;;;21.50;14.90;;;;;;;25.16;63.75;99084.54;105890;1276;97973;-67
2022/06/29 06:53:15;;;;;;;22.80;13.30;;;;;;;25.21;63.46;99084.89;105892;1276;108066;-69
2022/06/29 06:55:44;;;;;;;21.10;13.20;;;;;;;25.33;63.41;99076.80;105970;1276;97960;-67
2022/06/29 06:58:15;;;;;;;21.10;12.10;;;;;;;25.49;63.24;99072.00;105926;1277;97881;-70
2022/06/29 07:00:44;;;;;;;21.40;12.10;;;;;;;25.60;63.18;99067.44;105982;1276;110594;-68
2022/06/29 07:03:14;;;;;;;20.10;11.40;;;;;;;25.83;63.14;99069.20;106018;1276;97976;-67
2022/06/29 07:05:42;;;;;;;20.90;13.20;;;;;;;26.10;62.92;99072.73;105991;1276;108352;-66
2022/06/29 07:08:12;;;;;;;19.00;11.80;;;;;;;26.34;62.91;99070.69;105911;1277;97874;-66
2022/06/29 07:10:41;;;;;;;18.50;11.20;;;;;;;26.64;62.82;99065.61;105960;1276;95369;-66
2022/06/29 07:13:11;;;;;;;20.90;11.50;;;;;;;26.84;62.78;99063.90;105889;1276;111965;-70
2022/06/29 07:15:41;;;;;;;22.10;11.30;;;;;;;27.06;62.67;99061.10;105881;1277;95273;-67
2022/06/29 07:18:10;;;;;;;17.60;10.70;;;;;;;27.22;62.27;99063.45;105942;1276;108520;-67
2022/06/29 07:20:40;;;;;;;18.20;11.80;;;;;;;27.34;62.48;99072.52;105961;1277;95253;-67
2022/06/29 07:23:08;;;;;;;19.70;11.00;;;;;;;27.38;62.17;99084.56;105975;1276;97857;-67
2022/06/29 07:25:37;;;;;;;22.00;11.70;;;;;;;27.43;61.90;99090.70;106026;1276;112054;-68
2022/06/29 07:28:09;;;;;;;17.50;10.60;;;;;;;27.62;61.71;99080.74;106062;1276;95216;-68
2022/06/29 07:30:38;;;;;;;18.80;10.90;;;;;;;28.16;61.10;99070.24;105992;1276;108670;-68
2022/06/29 07:33:09;;;;;;;20.40;10.40;;;;;;;29.15;60.47;99060.86;105907;1278;96556;-67
2022/06/29 07:35:40;;;;;;;19.00;10.00;;;;;;;30.42;59.95;99050.60;105959;1276;97879;-67
2022/06/29 07:38:10;;;;;;;22.10;11.10;;;;;;;31.57;59.43;99052.63;105832;1276;111743;-67
2022/06/29 07:40:38;;;;;;;18.40;10.20;;;;;;;32.45;59.35;99056.86;105889;1276;98353;-66
2022/06/29 07:43:06;;;;;;;16.80;9.40;;;;;;;33.32;59.04;99051.08;105966;1276;108359;-67
2022/06/29 07:45:34;;;;;;;17.60;9.30;;;;;;;34.22;58.92;99047.68;105913;1277;97840;-66
2022/06/29 07:48:03;;;;;;;18.50;9.80;;;;;;;35.09;58.84;99046.06;105951;1276;95679;-67
2022/06/29 07:50:31;;;;;;;14.30;8.60;;;;;;;35.50;57.82;99047.41;105896;1276;112062;-66
2022/06/29 07:53:00;;;;;;;14.50;8.30;;;;;;;35.95;57.21;99048.48;105937;1277;96279;-67
2022/06/29 07:55:30;;;;;;;16.40;8.60;;;;;;;36.57;56.77;99044.68;105888;1277;108331;-66
2022/06/29 07:58:01;;;;;;;16.00;9.00;;;;;;;37.24;56.64;99038.39;105961;1276;98543;-67
2022/06/29 08:00:29;;;;;;;15.60;7.90;;;;;;;37.96;55.66;99034.70;106002;1277;97902;-66
2022/06/29 08:02:59;;;;;;;17.50;8.10;;;;;;;38.48;55.22;99038.65;105961;1276;112418;-66
2022/06/29 08:05:32;;;;;;;15.90;8.50;;;;;;;39.07;54.85;99036.86;105933;1276;97016;-68
2022/06/29 08:08:02;;;;;;;13.20;7.30;;;;;;;39.62;53.86;99039.99;105959;1277;107857;-67
2022/06/29 08:10:34;;;;;;;9.90;6.50;;;;;;;40.08;53.11;99037.69;105817;1278;97922;-66
2022/06/29 08:13:05;;;;;;;15.20;7.90;;;;;;;40.45;52.70;99037.34;105967;1276;95275;-66
2022/06/29 08:15:36;;;;;;;16.90;6.90;;;;;;;40.68;51.97;99033.78;105872;1277;112062;-66
2022/06/29 08:18:03;;;;;;;13.80;7.50;;;;;;;41.01;51.23;99033.48;105999;1277;98001;-65
2022/06/29 08:20:31;;;;;;;13.00;7.10;;;;;;;41.23;50.65;99033.08;105952;1278;109601;-66
2022/06/29 08:22:59;;;;;;;17.20;7.90;;;;;;;41.54;49.84;99029.11;105977;1277;97901;-66
2022/06/29 08:25:28;;;;;;;15.10;7.30;;;;;;;41.73;49.01;99028.02;105949;1277;98002;-65
2022/06/29 08:28:01;;;;;;;13.30;7.10;;;;;;;41.91;48.25;99027.06;105902;1277;111940;-66
2022/06/29 08:30:29;;;;;;;12.10;6.60;;;;;;;42.13;47.73;99031.56;105844;1277;96254;-67
2022/06/29 08:32:58;;;;;;;14.80;7.20;;;;;;;42.26;46.80;99027.22;105933;1277;108464;-65
2022/06/29 08:35:27;;;;;;;16.80;7.50;;;;;;;42.30;46.43;99031.41;105859;1278;96731;-67
2022/06/29 08:37:56;;;;;;;14.30;7.10;;;;;;;42.42;45.85;99032.35;105965;1276;97993;-66
2022/06/29 08:40:35;;;;;;;17.40;7.10;;;;;;;42.49;45.15;99031.20;106039;1277;111834;-67
2022/06/29 08:43:05;;;;;;;11.60;7.50;;;;;;;42.20;44.17;99028.00;106023;1277;96288;-66
2022/06/29 08:45:42;;;;;;;14.20;7.20;;;;;;;42.05;43.33;99026.92;105950;1277;107741;-67
2022/06/29 08:48:14;;;;;;;13.40;7.50;;;;;;;41.98;43.06;99030.14;105861;1277;97898;-66
2022/06/29 08:50:54;;;;;;;12.20;7.60;;;;;;;42.08;42.51;99027.52;105920;1277;97797;-67
2022/06/29 08:53:25;;;;;;;19.80;7.80;;;;;;;41.89;41.84;99025.60;106061;1277;112215;-65
2022/06/29 08:56:02;;;;;;;15.50;8.20;;;;;;;41.79;41.36;99021.59;106052;1276;96718;-66
2022/06/29 08:58:35;;;;;;;19.60;7.30;;;;;;;41.81;40.98;99023.33;106038;1276;107842;-67
2022/06/29 09:01:03;;;;;;;15.40;7.50;;;;;;;41.99;40.65;99016.09;106089;1277;97867;-65
2022/06/29 09:03:36;;;;;;;11.70;7.40;;;;;;;42.06;40.07;99013.61;106018;1277;97869;-65
2022/06/29 09:06:06;;;;;;;16.30;8.10;;;;;;;42.17;39.63;99014.23;106000;1277;111495;-67
2022/06/29 09:08:36;;;;;;;16.50;8.20;;;;;;;42.27;39.27;99015.95;105955;1277;98417;-66
2022/06/29 09:11:29;;;;;;;20.20;8.40;;;;;;;42.12;38.82;99013.15;105912;1277;108226;-66
2022/06/29 09:14:12;;;;;;;19.90;8.20;;;;;;;41.64;38.08;99017.41;105849;1278;98000;-70
2022/06/29 09:17:03;;;;;;;15.60;8.00;;;;;;;41.45;37.93;99014.56;105958;1277;97915;-67
2022/06/29 09:19:34;;;;;;;13.30;7.80;;;;;;;41.41;37.61;99015.15;105928;1277;111018;-66
2022/06/29 09:22:06;;;;;;;15.40;8.10;;;;;;;41.15;37.20;99010.00;105963;1277;95840;-66
2022/06/29 09:24:33;;;;;;;14.20;7.90;;;;;;;41.00;37.09;99008.13;105957;1277;107856;-66
2022/06/29 09:27:26;;;;;;;14.10;7.80;;;;;;;40.79;36.58;99003.70;105922;1277;95608;-66
2022/06/29 09:29:54;;;;;;;18.20;8.30;;;;;;;40.36;36.01;99009.11;105892;1277;98012;-67
2022/06/29 09:32:28;;;;;;;15.60;7.60;;;;;;;40.11;35.88;99009.13;105975;1277;112328;-66
2022/06/29 09:34:58;;;;;;;18.30;8.00;;;;;;;40.09;35.86;99009.50;105968;1278;97990;-66
2022/06/29 09:37:26;;;;;;;18.50;7.40;;;;;;;39.81;35.09;99009.31;105952;1277;108383;-66
2022/06/29 09:39:56;;;;;;;14.60;7.50;;;;;;;39.39;34.97;99008.52;105918;1278;97948;-66
2022/06/29 09:42:30;;;;;;;17.50;7.90;;;;;;;39.30;35.09;99007.34;105950;1277;95254;-67
2022/06/29 09:44:58;;;;;;;13.40;7.60;;;;;;;39.42;34.94;99006.23;105960;1277;111448;-66
2022/06/29 09:47:32;;;;;;;16.40;8.00;;;;;;;39.41;34.66;99011.25;106011;1277;98402;-67
2022/06/29 09:50:05;;;;;;;13.90;7.40;;;;;;;39.29;34.40;99001.88;106033;1277;107742;-67
2022/06/29 09:52:38;;;;;;;15.80;7.50;;;;;;;38.96;34.26;99006.14;106066;1277;96404;-67
2022/06/29 09:55:11;;;;;;;15.00;7.90;;;;;;;38.63;34.22;98999.11;106115;1277;97912;-66
2022/06/29 09:57:43;;;;;;;19.00;7.70;;;;;;;38.54;34.13;98999.17;106031;1277;111406;-67
2022/06/29 10:03:07;;;;;;;13.80;6.80;;;;;;;38.34;33.83;98995.87;106006;1277;108024;-67
2022/06/29 10:05:55;;;;;;;12.80;6.40;;;;;;;38.20;33.73;98996.73;105977;1277;97821;-66
2022/06/29 10:08:23;;;;;;;15.50;8.00;;;;;;;38.00;33.82;98994.42;106007;1277;97993;-68
2022/06/29 10:13:39;;;;;;;17.10;7.80;;;;;;;37.92;33.65;99000.54;106022;1277;111782;-67
2022/06/29 10:14:02;;;;;;;15.10;7.60;;;;;;;37.80;33.34;98996.66;105869;1277;98379;-66
2022/06/29 10:16:40;;;;;;;14.00;7.40;;;;;;;37.48;33.08;98995.05;105925;1277;107748;-67
2022/06/29 10:19:45;;;;;;;13.30;7.10;;;;;;;37.16;32.93;98996.65;105986;1277;97850;-66
2022/06/29 10:22:14;;;;;;;10.90;6.50;;;;;;;36.53;32.64;98997.60;105993;1277;97966;-66
2022/06/29 10:25:07;;;;;;;15.30;6.50;;;;;;;35.97;32.57;98995.67;105966;1277;112128;-69
2022/06/29 10:27:35;;;;;;;14.90;6.40;;;;;;;35.40;32.55;98995.39;106060;1277;97762;-70
2022/06/29 10:30:24;;;;;;;11.80;6.90;;;;;;;35.01;32.53;98987.84;106011;1277;107741;-70
2022/06/29 10:32:52;;;;;;;10.80;6.90;;;;;;;34.73;32.34;98982.45;106011;1277;95286;-74
2022/06/29 10:35:26;;;;;;;13.70;7.00;;;;;;;34.41;32.36;98978.60;105975;1277;95298;-74
2022/06/29 10:37:55;;;;;;;15.00;7.30;;;;;;;34.13;32.50;98978.61;105919;1277;111623;-74
2022/06/29 10:40:28;;;;;;;16.20;7.80;;;;;;;33.92;32.81;98973.42;105960;1277;97862;-74
2022/06/29 10:43:07;;;;;;;16.30;7.40;;;;;;;33.77;32.73;98966.45;106045;1277;107739;-75
2022/06/29 10:45:47;;;;;;;12.80;7.60;;;;;;;33.66;33.04;98964.55;106033;1276;95208;-76
2022/06/29 10:48:20;;;;;;;16.70;7.00;;;;;;;33.59;32.85;98965.02;106062;1277;97964;-74
2022/06/29 10:50:48;;;;;;;19.20;7.40;;;;;;;33.43;32.86;98966.18;106020;1276;111352;-74
2022/06/29 10:53:20;;;;;;;16.10;7.10;;;;;;;33.34;33.12;98960.59;105985;1276;98395;-75
2022/06/29 10:55:53;;;;;;;14.50;7.10;;;;;;;33.23;32.96;98953.02;106058;1276;107941;-73
2022/06/29 10:58:24;;;;;;;12.50;7.00;;;;;;;33.11;33.26;98948.23;106043;1277;97868;-77
2022/06/29 11:00:54;;;;;;;13.50;6.90;;;;;;;33.05;33.29;98950.44;106041;1277;95737;-78
2022/06/29 11:03:27;;;;;;;13.90;7.30;;;;;;;32.97;33.44;98941.40;106056;1277;111558;-76
2022/06/29 11:12:01;;;;;;;17.30;8.50;;;;;;;32.81;33.78;98936.06;105979;1276;98471;-74
2022/06/29 11:20:22;;;;;;;14.40;8.00;;;;;;;32.58;34.11;98927.64;106045;1276;98366;-73
2022/06/29 11:22:54;;;;;;;13.80;7.20;;;;;;;32.51;34.22;98925.92;106055;1276;107710;-74
2022/06/29 11:25:21;;;;;;;14.80;7.50;;;;;;;32.49;34.05;98918.52;106019;1276;96248;-75
2022/06/29 11:27:52;;;;;;;17.30;8.00;;;;;;;32.46;34.36;98918.38;105998;1277;97963;-74
2022/06/29 11:30:23;;;;;;;14.90;8.00;;;;;;;32.43;34.33;98911.47;106064;1276;111918;-74
2022/06/29 11:32:51;;;;;;;14.70;8.30;;;;;;;32.30;34.33;98908.09;106057;1276;98381;-75
2022/06/29 11:35:24;;;;;;;16.20;8.70;;;;;;;32.24;34.35;98903.14;106103;1276;108060;-75
2022/06/29 11:38:01;;;;;;;13.80;7.40;;;;;;;32.18;34.51;98897.15;105985;1276;97890;-74
2022/06/29 11:40:37;;;;;;;14.80;7.40;;;;;;;32.16;34.62;98891.85;105934;1277;97916;-73
2022/06/29 11:43:13;;;;;;;14.40;8.00;;;;;;;32.02;34.76;98887.96;105950;1276;111285;-73
2022/06/29 11:45:47;;;;;;;15.20;7.70;;;;;;;31.86;35.05;98892.38;106013;1276;98353;-74
2022/06/29 11:48:28;;;;;;;13.80;7.30;;;;;;;31.83;35.16;98893.66;105970;1276;107844;-74
2022/06/29 11:51:02;;;;;;;13.80;7.90;;;;;;;31.86;35.31;98898.21;105989;1276;97871;-73
2022/06/29 11:53:47;;;;;;;13.20;7.70;;;;;;;31.89;35.24;98896.99;105996;1276;97850;-73